sensor_id;sensor_type;location;lat;lon;timestamp;P1;durP1;ratioP1;P2;durP2;ratioP2
78858;SDS011;68210;52.032;4.634;2024-03-25T00:01:39;11.02;;;3.10;;
78858;SDS011;68210;52.032;4.634;2024-03-25T00:03:39;13.50;;;2.72;;
78858;SDS011;68210;52.032;4.634;2024-03-25T00:05:39;18.27;;;2.78;;
78858;SDS011;68210;52.032;4.634;2024-03-25T00:07:40;12.85;;;2.40;;
78858;SDS011;68210;52.032;4.634;2024-03-25T00:09:40;22.58;;;3.03;;
78858;SDS011;68210;52.032;4.634;2024-03-25T00:11:41;14.55;;;3.50;;
78858;SDS011;68210;52.032;4.634;2024-03-25T00:13:42;10.55;;;1.80;;
78858;SDS011;68210;52.032;4.634;2024-03-25T00:15:42;15.32;;;2.10;;
78858;SDS011;68210;52.032;4.634;2024-03-25T00:17:43;13.77;;;2.67;;
78858;SDS011;68210;52.032;4.634;2024-03-25T00:19:44;14.35;;;3.10;;
78858;SDS011;68210;52.032;4.634;2024-03-25T00:21:50;16.48;;;3.38;;
78858;SDS011;68210;52.032;4.634;2024-03-25T00:23:50;17.20;;;2.88;;
78858;SDS011;68210;52.032;4.634;2024-03-25T00:25:51;11.48;;;2.40;;
78858;SDS011;68210;52.032;4.634;2024-03-25T00:27:51;14.15;;;2.50;;
78858;SDS011;68210;52.032;4.634;2024-03-25T00:29:52;16.23;;;2.58;;
78858;SDS011;68210;52.032;4.634;2024-03-25T00:31:53;18.08;;;3.00;;
78858;SDS011;68210;52.032;4.634;2024-03-25T00:33:53;18.35;;;2.20;;
78858;SDS011;68210;52.032;4.634;2024-03-25T00:35:54;15.65;;;2.60;;
78858;SDS011;68210;52.032;4.634;2024-03-25T00:37:54;23.65;;;3.42;;
78858;SDS011;68210;52.032;4.634;2024-03-25T00:39:54;13.15;;;2.20;;
78858;SDS011;68210;52.032;4.634;2024-03-25T00:41:55;14.40;;;3.05;;
78858;SDS011;68210;52.032;4.634;2024-03-25T00:43:55;15.00;;;3.22;;
78858;SDS011;68210;52.032;4.634;2024-03-25T00:45:55;15.65;;;3.50;;
78858;SDS011;68210;52.032;4.634;2024-03-25T00:47:56;10.00;;;2.70;;
78858;SDS011;68210;52.032;4.634;2024-03-25T00:49:57;14.77;;;2.60;;
78858;SDS011;68210;52.032;4.634;2024-03-25T00:51:58;11.38;;;2.72;;
78858;SDS011;68210;52.032;4.634;2024-03-25T00:53:58;13.52;;;3.70;;
78858;SDS011;68210;52.032;4.634;2024-03-25T00:55:58;11.60;;;2.45;;
78858;SDS011;68210;52.032;4.634;2024-03-25T00:57:59;20.27;;;3.45;;
78858;SDS011;68210;52.032;4.634;2024-03-25T00:59:59;15.70;;;3.72;;
78858;SDS011;68210;52.032;4.634;2024-03-25T01:01:59;12.93;;;2.00;;
78858;SDS011;68210;52.032;4.634;2024-03-25T01:04:01;19.20;;;2.45;;
78858;SDS011;68210;52.032;4.634;2024-03-25T01:06:02;18.10;;;2.50;;
78858;SDS011;68210;52.032;4.634;2024-03-25T01:08:07;14.70;;;2.40;;
78858;SDS011;68210;52.032;4.634;2024-03-25T01:10:10;10.95;;;1.80;;
78858;SDS011;68210;52.032;4.634;2024-03-25T01:12:11;12.52;;;2.10;;
78858;SDS011;68210;52.032;4.634;2024-03-25T01:14:11;12.10;;;2.10;;
78858;SDS011;68210;52.032;4.634;2024-03-25T01:16:11;18.67;;;2.33;;
78858;SDS011;68210;52.032;4.634;2024-03-25T01:18:12;15.63;;;2.45;;
78858;SDS011;68210;52.032;4.634;2024-03-25T01:20:13;14.93;;;3.03;;
78858;SDS011;68210;52.032;4.634;2024-03-25T01:22:14;12.52;;;2.25;;
78858;SDS011;68210;52.032;4.634;2024-03-25T01:24:14;27.15;;;3.67;;
78858;SDS011;68210;52.032;4.634;2024-03-25T01:26:14;12.07;;;2.33;;
78858;SDS011;68210;52.032;4.634;2024-03-25T01:28:15;18.02;;;2.45;;
78858;SDS011;68210;52.032;4.634;2024-03-25T01:30:15;19.08;;;2.40;;
78858;SDS011;68210;52.032;4.634;2024-03-25T01:32:16;9.63;;;2.30;;
78858;SDS011;68210;52.032;4.634;2024-03-25T01:34:16;19.17;;;2.30;;
78858;SDS011;68210;52.032;4.634;2024-03-25T01:36:16;13.32;;;2.42;;
78858;SDS011;68210;52.032;4.634;2024-03-25T01:38:18;11.90;;;1.80;;
78858;SDS011;68210;52.032;4.634;2024-03-25T01:40:18;16.05;;;3.35;;
78858;SDS011;68210;52.032;4.634;2024-03-25T01:42:18;14.32;;;2.17;;
78858;SDS011;68210;52.032;4.634;2024-03-25T01:44:19;17.65;;;3.60;;
78858;SDS011;68210;52.032;4.634;2024-03-25T01:46:19;15.10;;;2.58;;
78858;SDS011;68210;52.032;4.634;2024-03-25T01:48:21;15.43;;;2.25;;
78858;SDS011;68210;52.032;4.634;2024-03-25T01:50:21;12.73;;;2.40;;
78858;SDS011;68210;52.032;4.634;2024-03-25T01:54:26;12.80;;;2.80;;
78858;SDS011;68210;52.032;4.634;2024-03-25T01:56:27;10.73;;;2.03;;
78858;SDS011;68210;52.032;4.634;2024-03-25T01:58:33;14.57;;;2.17;;
78858;SDS011;68210;52.032;4.634;2024-03-25T02:00:34;12.63;;;1.98;;
78858;SDS011;68210;52.032;4.634;2024-03-25T02:02:35;16.77;;;2.35;;
78858;SDS011;68210;52.032;4.634;2024-03-25T02:04:41;13.23;;;2.60;;
78858;SDS011;68210;52.032;4.634;2024-03-25T02:06:42;11.77;;;2.88;;
78858;SDS011;68210;52.032;4.634;2024-03-25T02:08:44;14.95;;;2.90;;
78858;SDS011;68210;52.032;4.634;2024-03-25T02:10:45;14.65;;;2.63;;
78858;SDS011;68210;52.032;4.634;2024-03-25T02:12:46;8.25;;;2.15;;
78858;SDS011;68210;52.032;4.634;2024-03-25T02:14:47;12.65;;;2.17;;
78858;SDS011;68210;52.032;4.634;2024-03-25T02:16:47;16.02;;;3.17;;
78858;SDS011;68210;52.032;4.634;2024-03-25T02:18:48;9.85;;;2.13;;
78858;SDS011;68210;52.032;4.634;2024-03-25T02:20:48;12.43;;;2.20;;
78858;SDS011;68210;52.032;4.634;2024-03-25T02:22:54;13.77;;;3.40;;
78858;SDS011;68210;52.032;4.634;2024-03-25T02:24:55;20.50;;;2.97;;
78858;SDS011;68210;52.032;4.634;2024-03-25T02:26:57;15.30;;;2.90;;
78858;SDS011;68210;52.032;4.634;2024-03-25T02:28:57;13.98;;;2.03;;
78858;SDS011;68210;52.032;4.634;2024-03-25T02:30:58;15.65;;;2.45;;
78858;SDS011;68210;52.032;4.634;2024-03-25T02:32:58;15.45;;;2.83;;
78858;SDS011;68210;52.032;4.634;2024-03-25T02:34:59;15.32;;;2.67;;
78858;SDS011;68210;52.032;4.634;2024-03-25T02:36:59;10.90;;;2.85;;
78858;SDS011;68210;52.032;4.634;2024-03-25T02:39:00;14.20;;;2.50;;
78858;SDS011;68210;52.032;4.634;2024-03-25T02:41:00;16.70;;;2.63;;
78858;SDS011;68210;52.032;4.634;2024-03-25T02:43:02;9.65;;;2.15;;
78858;SDS011;68210;52.032;4.634;2024-03-25T02:45:02;11.35;;;3.05;;
78858;SDS011;68210;52.032;4.634;2024-03-25T02:47:03;10.98;;;2.42;;
78858;SDS011;68210;52.032;4.634;2024-03-25T02:49:04;10.13;;;2.22;;
78858;SDS011;68210;52.032;4.634;2024-03-25T02:51:07;16.92;;;3.03;;
78858;SDS011;68210;52.032;4.634;2024-03-25T02:53:07;15.55;;;2.75;;
78858;SDS011;68210;52.032;4.634;2024-03-25T02:55:07;16.02;;;2.83;;
78858;SDS011;68210;52.032;4.634;2024-03-25T02:57:08;11.50;;;2.53;;
78858;SDS011;68210;52.032;4.634;2024-03-25T02:59:08;16.40;;;3.13;;
78858;SDS011;68210;52.032;4.634;2024-03-25T03:01:09;11.75;;;2.60;;
78858;SDS011;68210;52.032;4.634;2024-03-25T03:03:09;17.67;;;2.70;;
78858;SDS011;68210;52.032;4.634;2024-03-25T03:05:09;8.90;;;2.08;;
78858;SDS011;68210;52.032;4.634;2024-03-25T03:07:10;15.90;;;2.47;;
78858;SDS011;68210;52.032;4.634;2024-03-25T03:09:10;22.33;;;3.47;;
78858;SDS011;68210;52.032;4.634;2024-03-25T03:11:10;13.38;;;2.20;;
78858;SDS011;68210;52.032;4.634;2024-03-25T03:13:11;11.70;;;2.55;;
78858;SDS011;68210;52.032;4.634;2024-03-25T03:15:11;11.60;;;2.90;;
78858;SDS011;68210;52.032;4.634;2024-03-25T03:17:11;12.93;;;2.33;;
78858;SDS011;68210;52.032;4.634;2024-03-25T03:19:12;9.90;;;2.40;;
78858;SDS011;68210;52.032;4.634;2024-03-25T03:21:12;11.80;;;2.15;;
78858;SDS011;68210;52.032;4.634;2024-03-25T03:23:12;13.48;;;2.28;;
78858;SDS011;68210;52.032;4.634;2024-03-25T03:25:13;12.07;;;2.83;;
78858;SDS011;68210;52.032;4.634;2024-03-25T03:27:14;13.43;;;4.05;;
78858;SDS011;68210;52.032;4.634;2024-03-25T03:29:15;14.70;;;3.10;;
78858;SDS011;68210;52.032;4.634;2024-03-25T03:31:15;13.00;;;3.00;;
78858;SDS011;68210;52.032;4.634;2024-03-25T03:33:16;14.65;;;2.80;;
78858;SDS011;68210;52.032;4.634;2024-03-25T03:35:16;13.82;;;2.50;;
78858;SDS011;68210;52.032;4.634;2024-03-25T03:37:16;11.98;;;2.95;;
78858;SDS011;68210;52.032;4.634;2024-03-25T03:39:17;11.90;;;3.35;;
78858;SDS011;68210;52.032;4.634;2024-03-25T03:41:17;9.85;;;2.47;;
78858;SDS011;68210;52.032;4.634;2024-03-25T03:43:18;18.67;;;3.33;;
78858;SDS011;68210;52.032;4.634;2024-03-25T03:45:18;11.02;;;2.85;;
78858;SDS011;68210;52.032;4.634;2024-03-25T03:47:18;10.38;;;2.60;;
78858;SDS011;68210;52.032;4.634;2024-03-25T03:49:19;11.48;;;3.17;;
78858;SDS011;68210;52.032;4.634;2024-03-25T03:51:19;14.15;;;3.60;;
78858;SDS011;68210;52.032;4.634;2024-03-25T03:53:19;21.85;;;3.38;;
78858;SDS011;68210;52.032;4.634;2024-03-25T03:55:20;23.25;;;3.63;;
78858;SDS011;68210;52.032;4.634;2024-03-25T03:57:21;11.88;;;2.47;;
78858;SDS011;68210;52.032;4.634;2024-03-25T03:59:21;16.23;;;3.25;;
78858;SDS011;68210;52.032;4.634;2024-03-25T04:01:21;13.60;;;3.03;;
78858;SDS011;68210;52.032;4.634;2024-03-25T04:03:22;12.15;;;3.03;;
78858;SDS011;68210;52.032;4.634;2024-03-25T04:05:22;17.58;;;3.22;;
78858;SDS011;68210;52.032;4.634;2024-03-25T04:07:23;11.98;;;3.08;;
78858;SDS011;68210;52.032;4.634;2024-03-25T04:09:28;18.65;;;3.20;;
78858;SDS011;68210;52.032;4.634;2024-03-25T04:11:29;11.27;;;2.00;;
78858;SDS011;68210;52.032;4.634;2024-03-25T04:13:30;13.88;;;2.63;;
78858;SDS011;68210;52.032;4.634;2024-03-25T04:15:33;15.07;;;2.50;;
78858;SDS011;68210;52.032;4.634;2024-03-25T04:17:37;10.82;;;2.88;;
78858;SDS011;68210;52.032;4.634;2024-03-25T04:19:37;14.13;;;2.65;;
78858;SDS011;68210;52.032;4.634;2024-03-25T04:21:38;15.25;;;3.30;;
78858;SDS011;68210;52.032;4.634;2024-03-25T04:23:39;13.55;;;2.80;;
78858;SDS011;68210;52.032;4.634;2024-03-25T04:25:41;15.57;;;2.80;;
78858;SDS011;68210;52.032;4.634;2024-03-25T04:27:41;13.52;;;2.83;;
78858;SDS011;68210;52.032;4.634;2024-03-25T04:29:41;14.07;;;3.03;;
78858;SDS011;68210;52.032;4.634;2024-03-25T04:31:42;10.60;;;2.60;;
78858;SDS011;68210;52.032;4.634;2024-03-25T04:33:42;10.38;;;2.20;;
78858;SDS011;68210;52.032;4.634;2024-03-25T04:35:42;16.98;;;3.70;;
78858;SDS011;68210;52.032;4.634;2024-03-25T04:37:43;12.48;;;3.00;;
78858;SDS011;68210;52.032;4.634;2024-03-25T04:39:43;10.88;;;2.50;;
78858;SDS011;68210;52.032;4.634;2024-03-25T04:41:44;18.63;;;3.33;;
78858;SDS011;68210;52.032;4.634;2024-03-25T04:43:44;18.42;;;3.20;;
78858;SDS011;68210;52.032;4.634;2024-03-25T04:45:45;13.90;;;3.17;;
78858;SDS011;68210;52.032;4.634;2024-03-25T04:47:46;15.32;;;2.97;;
78858;SDS011;68210;52.032;4.634;2024-03-25T04:49:46;13.52;;;2.33;;
78858;SDS011;68210;52.032;4.634;2024-03-25T04:51:47;15.55;;;3.33;;
78858;SDS011;68210;52.032;4.634;2024-03-25T04:53:47;15.02;;;2.85;;
78858;SDS011;68210;52.032;4.634;2024-03-25T04:55:47;7.20;;;1.95;;
78858;SDS011;68210;52.032;4.634;2024-03-25T04:57:48;11.55;;;2.80;;
78858;SDS011;68210;52.032;4.634;2024-03-25T04:59:48;18.63;;;3.63;;
78858;SDS011;68210;52.032;4.634;2024-03-25T05:01:49;17.60;;;2.55;;
78858;SDS011;68210;52.032;4.634;2024-03-25T05:03:49;19.92;;;3.08;;
78858;SDS011;68210;52.032;4.634;2024-03-25T05:05:49;15.18;;;2.88;;
78858;SDS011;68210;52.032;4.634;2024-03-25T05:07:50;12.02;;;2.60;;
78858;SDS011;68210;52.032;4.634;2024-03-25T05:09:50;19.13;;;3.33;;
78858;SDS011;68210;52.032;4.634;2024-03-25T05:11:51;12.35;;;3.70;;
78858;SDS011;68210;52.032;4.634;2024-03-25T05:13:51;12.88;;;3.42;;
78858;SDS011;68210;52.032;4.634;2024-03-25T05:15:52;14.35;;;3.22;;
78858;SDS011;68210;52.032;4.634;2024-03-25T05:17:52;13.55;;;3.20;;
78858;SDS011;68210;52.032;4.634;2024-03-25T05:19:53;12.13;;;3.53;;
78858;SDS011;68210;52.032;4.634;2024-03-25T05:21:53;12.20;;;3.05;;
78858;SDS011;68210;52.032;4.634;2024-03-25T05:23:54;15.75;;;3.63;;
78858;SDS011;68210;52.032;4.634;2024-03-25T05:25:54;12.57;;;2.72;;
78858;SDS011;68210;52.032;4.634;2024-03-25T05:27:54;11.73;;;2.42;;
78858;SDS011;68210;52.032;4.634;2024-03-25T05:29:55;13.98;;;2.78;;
78858;SDS011;68210;52.032;4.634;2024-03-25T05:31:58;15.38;;;2.78;;
78858;SDS011;68210;52.032;4.634;2024-03-25T05:33:59;15.60;;;3.25;;
78858;SDS011;68210;52.032;4.634;2024-03-25T05:36:02;12.68;;;2.67;;
78858;SDS011;68210;52.032;4.634;2024-03-25T05:38:03;14.02;;;3.28;;
78858;SDS011;68210;52.032;4.634;2024-03-25T05:40:04;19.85;;;3.22;;
78858;SDS011;68210;52.032;4.634;2024-03-25T05:42:04;8.93;;;2.90;;
78858;SDS011;68210;52.032;4.634;2024-03-25T05:44:05;13.07;;;2.70;;
78858;SDS011;68210;52.032;4.634;2024-03-25T05:46:05;15.73;;;2.92;;
78858;SDS011;68210;52.032;4.634;2024-03-25T05:48:07;10.00;;;2.97;;
78858;SDS011;68210;52.032;4.634;2024-03-25T05:50:07;14.45;;;2.95;;
78858;SDS011;68210;52.032;4.634;2024-03-25T05:52:08;24.88;;;3.67;;
78858;SDS011;68210;52.032;4.634;2024-03-25T05:54:08;19.55;;;2.95;;
78858;SDS011;68210;52.032;4.634;2024-03-25T05:56:09;14.55;;;3.47;;
78858;SDS011;68210;52.032;4.634;2024-03-25T05:58:09;15.02;;;3.30;;
78858;SDS011;68210;52.032;4.634;2024-03-25T06:00:10;18.00;;;3.67;;
78858;SDS011;68210;52.032;4.634;2024-03-25T06:02:11;14.52;;;2.88;;
78858;SDS011;68210;52.032;4.634;2024-03-25T06:04:12;12.88;;;2.83;;
78858;SDS011;68210;52.032;4.634;2024-03-25T06:06:12;11.25;;;2.60;;
78858;SDS011;68210;52.032;4.634;2024-03-25T06:08:13;12.57;;;3.35;;
78858;SDS011;68210;52.032;4.634;2024-03-25T06:10:24;8.10;;;2.40;;
78858;SDS011;68210;52.032;4.634;2024-03-25T06:12:25;13.48;;;2.42;;
78858;SDS011;68210;52.032;4.634;2024-03-25T06:14:25;15.38;;;3.25;;
78858;SDS011;68210;52.032;4.634;2024-03-25T06:16:25;14.27;;;3.05;;
78858;SDS011;68210;52.032;4.634;2024-03-25T06:18:26;20.60;;;3.88;;
78858;SDS011;68210;52.032;4.634;2024-03-25T06:20:26;14.63;;;2.97;;
78858;SDS011;68210;52.032;4.634;2024-03-25T06:22:27;19.55;;;3.42;;
78858;SDS011;68210;52.032;4.634;2024-03-25T06:24:27;11.65;;;2.83;;
78858;SDS011;68210;52.032;4.634;2024-03-25T06:26:28;12.15;;;2.50;;
78858;SDS011;68210;52.032;4.634;2024-03-25T06:28:29;10.32;;;2.10;;
78858;SDS011;68210;52.032;4.634;2024-03-25T06:30:29;13.27;;;2.58;;
78858;SDS011;68210;52.032;4.634;2024-03-25T06:32:49;8.30;;;2.83;;
78858;SDS011;68210;52.032;4.634;2024-03-25T06:35:08;13.70;;;2.72;;
78858;SDS011;68210;52.032;4.634;2024-03-25T06:37:08;17.27;;;2.42;;
78858;SDS011;68210;52.032;4.634;2024-03-25T06:39:09;10.05;;;2.53;;
78858;SDS011;68210;52.032;4.634;2024-03-25T06:41:09;17.27;;;2.95;;
78858;SDS011;68210;52.032;4.634;2024-03-25T06:43:10;14.52;;;2.85;;
78858;SDS011;68210;52.032;4.634;2024-03-25T06:45:10;7.22;;;2.28;;
78858;SDS011;68210;52.032;4.634;2024-03-25T06:47:10;13.13;;;2.90;;
78858;SDS011;68210;52.032;4.634;2024-03-25T06:49:11;20.77;;;3.22;;
78858;SDS011;68210;52.032;4.634;2024-03-25T06:51:11;17.88;;;3.45;;
78858;SDS011;68210;52.032;4.634;2024-03-25T06:53:11;11.30;;;2.83;;
78858;SDS011;68210;52.032;4.634;2024-03-25T06:55:12;15.85;;;3.70;;
78858;SDS011;68210;52.032;4.634;2024-03-25T06:57:12;15.48;;;3.20;;
78858;SDS011;68210;52.032;4.634;2024-03-25T06:59:12;16.30;;;2.60;;
78858;SDS011;68210;52.032;4.634;2024-03-25T07:01:14;13.25;;;3.00;;
78858;SDS011;68210;52.032;4.634;2024-03-25T07:03:17;11.68;;;4.20;;
78858;SDS011;68210;52.032;4.634;2024-03-25T07:05:19;10.07;;;3.00;;
78858;SDS011;68210;52.032;4.634;2024-03-25T07:07:19;13.35;;;3.55;;
78858;SDS011;68210;52.032;4.634;2024-03-25T07:09:19;12.15;;;3.67;;
78858;SDS011;68210;52.032;4.634;2024-03-25T07:11:20;14.13;;;3.38;;
78858;SDS011;68210;52.032;4.634;2024-03-25T07:13:21;11.23;;;2.85;;
78858;SDS011;68210;52.032;4.634;2024-03-25T07:15:21;15.32;;;3.10;;
78858;SDS011;68210;52.032;4.634;2024-03-25T07:17:21;14.68;;;3.65;;
78858;SDS011;68210;52.032;4.634;2024-03-25T07:19:22;12.82;;;3.25;;
78858;SDS011;68210;52.032;4.634;2024-03-25T07:21:22;15.48;;;3.75;;
78858;SDS011;68210;52.032;4.634;2024-03-25T07:23:23;15.50;;;3.58;;
78858;SDS011;68210;52.032;4.634;2024-03-25T07:25:23;15.32;;;3.63;;
78858;SDS011;68210;52.032;4.634;2024-03-25T07:27:24;14.48;;;5.63;;
78858;SDS011;68210;52.032;4.634;2024-03-25T07:29:25;8.48;;;3.58;;
78858;SDS011;68210;52.032;4.634;2024-03-25T07:31:25;17.88;;;4.22;;
78858;SDS011;68210;52.032;4.634;2024-03-25T07:33:25;13.77;;;3.88;;
78858;SDS011;68210;52.032;4.634;2024-03-25T07:35:26;13.30;;;3.85;;
78858;SDS011;68210;52.032;4.634;2024-03-25T07:37:26;14.13;;;4.70;;
78858;SDS011;68210;52.032;4.634;2024-03-25T07:39:27;13.57;;;5.07;;
78858;SDS011;68210;52.032;4.634;2024-03-25T07:41:27;13.70;;;5.60;;
78858;SDS011;68210;52.032;4.634;2024-03-25T07:43:28;10.50;;;4.85;;
78858;SDS011;68210;52.032;4.634;2024-03-25T07:45:28;15.68;;;5.22;;
78858;SDS011;68210;52.032;4.634;2024-03-25T07:47:29;12.25;;;5.00;;
78858;SDS011;68210;52.032;4.634;2024-03-25T07:49:30;11.73;;;5.07;;
78858;SDS011;68210;52.032;4.634;2024-03-25T07:51:31;10.75;;;5.53;;
78858;SDS011;68210;52.032;4.634;2024-03-25T07:53:31;16.95;;;6.30;;
78858;SDS011;68210;52.032;4.634;2024-03-25T07:55:32;13.23;;;5.90;;
78858;SDS011;68210;52.032;4.634;2024-03-25T07:57:32;17.33;;;6.32;;
78858;SDS011;68210;52.032;4.634;2024-03-25T07:59:33;16.08;;;6.40;;
78858;SDS011;68210;52.032;4.634;2024-03-25T08:01:33;18.63;;;5.70;;
78858;SDS011;68210;52.032;4.634;2024-03-25T08:03:33;19.25;;;6.90;;
78858;SDS011;68210;52.032;4.634;2024-03-25T08:05:35;16.45;;;6.55;;
78858;SDS011;68210;52.032;4.634;2024-03-25T08:07:36;13.55;;;5.25;;
78858;SDS011;68210;52.032;4.634;2024-03-25T08:09:36;16.15;;;5.40;;
78858;SDS011;68210;52.032;4.634;2024-03-25T08:11:36;18.08;;;5.82;;
78858;SDS011;68210;52.032;4.634;2024-03-25T08:13:37;14.38;;;6.18;;
78858;SDS011;68210;52.032;4.634;2024-03-25T08:15:37;15.88;;;5.85;;
78858;SDS011;68210;52.032;4.634;2024-03-25T08:17:38;15.05;;;6.32;;
78858;SDS011;68210;52.032;4.634;2024-03-25T08:19:38;13.95;;;6.05;;
78858;SDS011;68210;52.032;4.634;2024-03-25T08:21:38;14.98;;;6.03;;
78858;SDS011;68210;52.032;4.634;2024-03-25T08:23:39;12.55;;;6.57;;
78858;SDS011;68210;52.032;4.634;2024-03-25T08:25:40;16.05;;;6.97;;
78858;SDS011;68210;52.032;4.634;2024-03-25T08:27:40;13.65;;;6.45;;
78858;SDS011;68210;52.032;4.634;2024-03-25T08:29:42;12.68;;;5.65;;
78858;SDS011;68210;52.032;4.634;2024-03-25T08:31:43;15.60;;;5.88;;
78858;SDS011;68210;52.032;4.634;2024-03-25T08:33:43;15.05;;;5.57;;
78858;SDS011;68210;52.032;4.634;2024-03-25T08:35:43;10.55;;;5.47;;
78858;SDS011;68210;52.032;4.634;2024-03-25T08:37:44;11.30;;;6.22;;
78858;SDS011;68210;52.032;4.634;2024-03-25T08:39:44;12.10;;;6.38;;
78858;SDS011;68210;52.032;4.634;2024-03-25T08:41:44;10.63;;;4.88;;
78858;SDS011;68210;52.032;4.634;2024-03-25T08:43:45;16.85;;;5.85;;
78858;SDS011;68210;52.032;4.634;2024-03-25T08:45:45;15.15;;;6.93;;
78858;SDS011;68210;52.032;4.634;2024-03-25T08:47:46;15.18;;;6.38;;
78858;SDS011;68210;52.032;4.634;2024-03-25T08:49:46;10.15;;;5.50;;
78858;SDS011;68210;52.032;4.634;2024-03-25T08:51:47;17.77;;;6.70;;
78858;SDS011;68210;52.032;4.634;2024-03-25T08:53:47;13.90;;;5.97;;
78858;SDS011;68210;52.032;4.634;2024-03-25T08:55:48;12.30;;;5.78;;
78858;SDS011;68210;52.032;4.634;2024-03-25T08:57:48;13.68;;;6.32;;
78858;SDS011;68210;52.032;4.634;2024-03-25T08:59:49;14.80;;;5.93;;
78858;SDS011;68210;52.032;4.634;2024-03-25T09:01:49;16.52;;;6.85;;
78858;SDS011;68210;52.032;4.634;2024-03-25T09:03:50;14.80;;;6.28;;
78858;SDS011;68210;52.032;4.634;2024-03-25T09:05:50;13.05;;;6.18;;
78858;SDS011;68210;52.032;4.634;2024-03-25T09:07:50;16.08;;;6.25;;
78858;SDS011;68210;52.032;4.634;2024-03-25T09:09:52;16.77;;;7.53;;
78858;SDS011;68210;52.032;4.634;2024-03-25T09:12:11;12.93;;;6.13;;
78858;SDS011;68210;52.032;4.634;2024-03-25T09:14:11;11.80;;;6.53;;
78858;SDS011;68210;52.032;4.634;2024-03-25T09:16:12;14.95;;;6.75;;
78858;SDS011;68210;52.032;4.634;2024-03-25T09:18:12;25.65;;;7.93;;
78858;SDS011;68210;52.032;4.634;2024-03-25T09:20:12;9.48;;;4.80;;
78858;SDS011;68210;52.032;4.634;2024-03-25T09:22:20;15.60;;;7.00;;
78858;SDS011;68210;52.032;4.634;2024-03-25T09:24:21;13.38;;;6.95;;
78858;SDS011;68210;52.032;4.634;2024-03-25T09:26:21;15.65;;;6.90;;
78858;SDS011;68210;52.032;4.634;2024-03-25T09:28:21;12.98;;;5.88;;
78858;SDS011;68210;52.032;4.634;2024-03-25T09:30:22;11.65;;;6.40;;
78858;SDS011;68210;52.032;4.634;2024-03-25T09:32:22;12.73;;;6.32;;
78858;SDS011;68210;52.032;4.634;2024-03-25T09:34:23;14.82;;;6.13;;
78858;SDS011;68210;52.032;4.634;2024-03-25T09:36:24;18.20;;;6.95;;
78858;SDS011;68210;52.032;4.634;2024-03-25T09:38:25;13.18;;;6.70;;
78858;SDS011;68210;52.032;4.634;2024-03-25T09:40:25;14.80;;;6.53;;
78858;SDS011;68210;52.032;4.634;2024-03-25T09:42:26;11.18;;;5.28;;
78858;SDS011;68210;52.032;4.634;2024-03-25T09:44:33;12.90;;;6.30;;
78858;SDS011;68210;52.032;4.634;2024-03-25T09:46:33;17.45;;;6.75;;
78858;SDS011;68210;52.032;4.634;2024-03-25T09:48:36;11.15;;;6.38;;
78858;SDS011;68210;52.032;4.634;2024-03-25T09:50:37;15.18;;;6.50;;
78858;SDS011;68210;52.032;4.634;2024-03-25T09:52:39;14.65;;;6.60;;
78858;SDS011;68210;52.032;4.634;2024-03-25T09:54:40;15.32;;;7.35;;
78858;SDS011;68210;52.032;4.634;2024-03-25T09:56:40;14.45;;;6.80;;
78858;SDS011;68210;52.032;4.634;2024-03-25T09:58:42;14.20;;;7.55;;
78858;SDS011;68210;52.032;4.634;2024-03-25T10:00:44;17.38;;;8.73;;
78858;SDS011;68210;52.032;4.634;2024-03-25T10:02:45;17.63;;;8.07;;
78858;SDS011;68210;52.032;4.634;2024-03-25T10:04:46;19.27;;;8.98;;
78858;SDS011;68210;52.032;4.634;2024-03-25T10:06:48;14.55;;;7.78;;
78858;SDS011;68210;52.032;4.634;2024-03-25T10:08:48;23.55;;;8.93;;
78858;SDS011;68210;52.032;4.634;2024-03-25T10:10:54;17.52;;;7.68;;
78858;SDS011;68210;52.032;4.634;2024-03-25T10:12:55;19.73;;;10.43;;
78858;SDS011;68210;52.032;4.634;2024-03-25T10:14:56;21.00;;;10.57;;
78858;SDS011;68210;52.032;4.634;2024-03-25T10:16:57;17.77;;;10.48;;
78858;SDS011;68210;52.032;4.634;2024-03-25T10:18:57;23.90;;;11.02;;
78858;SDS011;68210;52.032;4.634;2024-03-25T10:20:58;25.73;;;12.05;;
78858;SDS011;68210;52.032;4.634;2024-03-25T10:22:58;19.80;;;11.27;;
78858;SDS011;68210;52.032;4.634;2024-03-25T10:24:58;22.10;;;10.70;;
78858;SDS011;68210;52.032;4.634;2024-03-25T10:26:59;20.92;;;9.90;;
78858;SDS011;68210;52.032;4.634;2024-03-25T10:29:03;20.60;;;10.65;;
78858;SDS011;68210;52.032;4.634;2024-03-25T10:31:04;22.20;;;9.63;;
78858;SDS011;68210;52.032;4.634;2024-03-25T10:33:05;19.42;;;9.40;;
78858;SDS011;68210;52.032;4.634;2024-03-25T10:35:09;23.35;;;9.52;;
78858;SDS011;68210;52.032;4.634;2024-03-25T10:37:09;22.02;;;10.40;;
78858;SDS011;68210;52.032;4.634;2024-03-25T10:39:11;23.55;;;10.15;;
78858;SDS011;68210;52.032;4.634;2024-03-25T10:41:13;20.45;;;9.35;;
78858;SDS011;68210;52.032;4.634;2024-03-25T10:43:17;22.98;;;10.10;;
78858;SDS011;68210;52.032;4.634;2024-03-25T10:45:18;20.73;;;10.50;;
78858;SDS011;68210;52.032;4.634;2024-03-25T10:47:28;20.20;;;11.23;;
78858;SDS011;68210;52.032;4.634;2024-03-25T10:49:34;18.90;;;10.68;;
78858;SDS011;68210;52.032;4.634;2024-03-25T10:51:43;21.38;;;11.70;;
78858;SDS011;68210;52.032;4.634;2024-03-25T10:53:44;24.08;;;11.10;;
78858;SDS011;68210;52.032;4.634;2024-03-25T10:55:46;23.70;;;10.73;;
78858;SDS011;68210;52.032;4.634;2024-03-25T10:57:50;27.30;;;12.95;;
78858;SDS011;68210;52.032;4.634;2024-03-25T10:59:51;23.38;;;10.38;;
78858;SDS011;68210;52.032;4.634;2024-03-25T11:01:53;23.40;;;10.73;;
78858;SDS011;68210;52.032;4.634;2024-03-25T11:03:53;21.38;;;9.57;;
78858;SDS011;68210;52.032;4.634;2024-03-25T11:05:54;19.40;;;9.77;;
78858;SDS011;68210;52.032;4.634;2024-03-25T11:07:54;22.55;;;9.77;;
78858;SDS011;68210;52.032;4.634;2024-03-25T11:10:02;20.73;;;10.13;;
78858;SDS011;68210;52.032;4.634;2024-03-25T11:12:06;19.83;;;8.98;;
78858;SDS011;68210;52.032;4.634;2024-03-25T11:14:15;20.08;;;9.40;;
78858;SDS011;68210;52.032;4.634;2024-03-25T11:18:26;17.65;;;8.20;;
78858;SDS011;68210;52.032;4.634;2024-03-25T11:20:28;18.20;;;8.77;;
78858;SDS011;68210;52.032;4.634;2024-03-25T11:22:28;19.55;;;9.40;;
78858;SDS011;68210;52.032;4.634;2024-03-25T11:24:29;14.15;;;6.50;;
78858;SDS011;68210;52.032;4.634;2024-03-25T11:26:30;13.85;;;6.38;;
78858;SDS011;68210;52.032;4.634;2024-03-25T11:28:33;19.33;;;9.35;;
78858;SDS011;68210;52.032;4.634;2024-03-25T11:30:34;15.07;;;7.72;;
78858;SDS011;68210;52.032;4.634;2024-03-25T11:32:51;23.35;;;10.45;;
78858;SDS011;68210;52.032;4.634;2024-03-25T11:34:53;14.57;;;6.90;;
78858;SDS011;68210;52.032;4.634;2024-03-25T11:36:54;15.75;;;8.57;;
78858;SDS011;68210;52.032;4.634;2024-03-25T11:41:05;14.98;;;6.90;;
78858;SDS011;68210;52.032;4.634;2024-03-25T11:43:05;12.90;;;5.50;;
78858;SDS011;68210;52.032;4.634;2024-03-25T11:45:06;13.02;;;6.45;;
78858;SDS011;68210;52.032;4.634;2024-03-25T11:47:07;10.98;;;5.00;;
78858;SDS011;68210;52.032;4.634;2024-03-25T11:49:12;9.65;;;3.20;;
78858;SDS011;68210;52.032;4.634;2024-03-25T11:51:16;8.68;;;3.42;;
78858;SDS011;68210;52.032;4.634;2024-03-25T11:53:17;13.80;;;5.03;;
78858;SDS011;68210;52.032;4.634;2024-03-25T11:55:17;9.57;;;3.45;;
78858;SDS011;68210;52.032;4.634;2024-03-25T11:57:18;8.00;;;3.17;;
78858;SDS011;68210;52.032;4.634;2024-03-25T11:59:18;8.25;;;3.30;;
78858;SDS011;68210;52.032;4.634;2024-03-25T12:01:19;6.85;;;3.33;;
78858;SDS011;68210;52.032;4.634;2024-03-25T12:03:19;8.73;;;2.83;;
78858;SDS011;68210;52.032;4.634;2024-03-25T12:05:20;6.25;;;3.38;;